Airfield :
LOGIN :

Register | Disclaimer

   EN    FR    IT 

 










Legend :    VFR   Marginal VFR   IFR   Intensive IFR   Very Intensive IFR
Visi :
Ceiling :
>= 8 km
>= 3000ft
5 to 8 km
1000 to 3000 ft
1500m to 5 km
500 to 1000 ft
800 to 1500m
200 to 500 ft
< 800m
< 200 ft
Symbols :   Thunderstorms  Fog  Heavy snow  Heavy precipitations  Wind > 20 kt
SIGMETs :     Misc.  Thunderstorms  Icing  Turbulence  Mountain Waves  Volcanic Ashes







- Airport Elevation : 160 ft
- IATA code : LRT
- Download approach charts


LFRH - Lorient Lann Bihoue

CURRENT METAR :
  • 210900Z AUTO 30005KT 270V330 CAVOK 14/11 Q1018 NOSIG

EXPIRED METARs :
  • 210830Z AUTO 31006KT 280V340 CAVOK 14/12 Q1017 NOSIG
  • 210800Z AUTO 31005KT 280V340 CAVOK 13/12 Q1017 NOSIG
  • 210730Z AUTO 29005KT CAVOK 12/12 Q1016 NOSIG
  • 210700Z AUTO 29003KT CAVOK 12/12 Q1016 NOSIG
  • 210630Z AUTO 28004KT CAVOK 11/11 Q1015 NOSIG

TAF TAF LFRH
Valid from the 21 at 06:00 until the 22 at 06:00 UTC


210500Z 2106/2206 30010KT 9999 SCT040
BECMG 2110/2112 28010G20KT
BECMG 2116/2118 28005KT
No reported NOTAMs for that airfield.



MET'MAP, your aeronautical weather chart ! - Copyright ORBIFLY December 2007 - Disclaimer

ORBIFLY MET'MAP TEAM :

Programming & Development : Alexandra Zaïnal
Concept & Development : Baudouin d'Aumeries
Co-Development & Prog : Marc-Olivier Méhu
Technical & hardware support : Manuel Goepfert

Contact : metmap@orbifly.com




SOURCES & CREDITS :

   NOAA